Weather reports worldwide

Advertisment
Martina Franca, Italy (16318): temperature & dewpoint: 15.05.2019 16:00:00 - 21.05.2019 16:00:00 (CEST)Martina Franca, Italy (16318): wind speed: 15.05.2019 16:00:00 - 21.05.2019 16:00:00 (CEST)Martina Franca, Italy (16318): wind direction: 15.05.2019 16:00:00 - 21.05.2019 16:00:00 (CEST)Martina Franca, Italy (16318): reduced air pressure: 15.05.2019 16:00:00 - 21.05.2019 16:00:00 (CEST)
Date & Time tt [°C] td [°C] ff [km/h] ff [kn] dd ppp [hPa]
21.05.2019 16:00:00 - - - - - -
21.05.2019 15:00:00 20,8 13,7 16 9 SW 1014,8
21.05.2019 14:00:00 19,6 13,2 15 8 SSW 1015,0
21.05.2019 13:00:00 19,3 13,4 11 6 S 1015,0
21.05.2019 12:00:00 19,7 14,2 13 7 SW 1014,8
21.05.2019 11:00:00 18,5 14,7 15 8 WSW 1014,4
21.05.2019 10:00:00 16,8 14,9 13 7 NE 1014,6
21.05.2019 09:00:00 14,7 13,5 13 7 S 1014,7
21.05.2019 08:00:00 12,2 11,3 4 2 SSW 1014,6
21.05.2019 07:00:00 11,3 10,7 9 5 SSW 1014,5
21.05.2019 06:00:00 9,8 9,2 4 2 S 1014,7
21.05.2019 05:00:00 9,3 8,7 0 0 N 1014,6
21.05.2019 04:00:00 8,3 7,4 5 3 WSW 1014,8
21.05.2019 03:00:00 8,0 7,1 4 2 SE 1014,9
21.05.2019 02:00:00 8,8 7,9 9 5 W 1015,1
21.05.2019 01:00:00 9,2 8,3 4 2 E 1015,4
21.05.2019 00:00:00 10,3 9,5 8 4 SSW 1015,2
20.05.2019 23:00:00 10,8 10,0 8 4 S 1014,8
20.05.2019 22:00:00 11,1 10,3 5 3 E 1014,2
20.05.2019 21:00:00 11,8 10,9 5 3 S 1013,6
20.05.2019 20:00:00 12,7 11,6 4 2 E 1013,1
20.05.2019 19:00:00 12,9 11,6 4 2 S 1013,5
20.05.2019 18:00:00 13,8 12,5 5 3 ENE 1013,2
20.05.2019 17:00:00 15,3 12,4 4 2 W 1013,4
20.05.2019 16:00:00 15,1 11,5 8 4 S 1012,9
20.05.2019 15:00:00 19,6 12,8 18 10 SSW 1011,9
20.05.2019 14:00:00 17,7 12,3 13 7 SW 1012,3
20.05.2019 13:00:00 19,7 11,9 15 8 SW 1011,7
20.05.2019 12:00:00 18,2 12,2 16 9 SSW 1011,8
20.05.2019 11:00:00 16,7 11,8 13 7 NE 1011,7
20.05.2019 10:00:00 15,0 12,1 13 7 SSW 1011,9
20.05.2019 09:00:00 13,5 11,0 5 3 WSW 1011,7
20.05.2019 08:00:00 13,2 11,4 5 3 SW 1011,2
20.05.2019 07:00:00 11,6 10,2 2 1 S 1010,9
20.05.2019 06:00:00 9,2 6,6 4 2 N 1010,6
20.05.2019 05:00:00 10,5 8,7 13 7 NNW 1010,5
20.05.2019 04:00:00 10,3 8,9 5 3 W 1010,4
20.05.2019 03:00:00 11,0 9,6 9 5 WSW 1010,5
20.05.2019 02:00:00 11,6 10,2 9 5 NE 1010,3
20.05.2019 01:00:00 11,4 9,8 5 3 SW 1010,3
20.05.2019 00:00:00 12,6 11,0 2 1 NNE 1010,3
19.05.2019 23:00:00 13,2 11,2 2 1 NW 1010,1
19.05.2019 22:00:00 13,6 12,0 4 2 WSW 1009,6
19.05.2019 21:00:00 14,2 12,4 8 4 NW 1008,9
19.05.2019 20:00:00 15,2 13,7 8 4 NNE 1008,4
19.05.2019 19:00:00 15,8 13,4 16 9 N 1007,5
19.05.2019 18:00:00 16,8 14,6 15 8 N 1006,5
19.05.2019 17:00:00 19,0 13,5 9 5 NNW 1005,8
19.05.2019 16:00:00 19,5 14,4 13 7 SE 1005,6
19.05.2019 15:00:00 18,2 14,4 11 6 SW 1005,3
19.05.2019 14:00:00 20,6 16,8 13 7 S 1004,4
19.05.2019 13:00:00 19,6 17,7 9 5 NNE 1004,5
19.05.2019 12:00:00 17,9 17,8 13 7 SSW 1004,8
19.05.2019 11:00:00 15,7 15,6 11 6 SSW 1005,0
19.05.2019 10:00:00 14,7 14,6 13 7 SSW 1005,3
19.05.2019 09:00:00 14,0 13,9 11 6 S 1005,9
19.05.2019 08:00:00 13,6 13,5 13 7 S 1005,8
19.05.2019 07:00:00 13,3 13,1 11 6 S 1006,3
19.05.2019 06:00:00 13,2 13,0 4 2 SW 1005,8
19.05.2019 05:00:00 13,3 13,1 11 6 NNW 1006,7
19.05.2019 04:00:00 13,3 13,1 8 4 W 1007,5
19.05.2019 03:00:00 13,3 13,1 15 8 S 1008,0
19.05.2019 02:00:00 13,2 12,8 13 7 NW 1008,1
19.05.2019 01:00:00 13,2 12,8 15 8 WSW 1009,1
19.05.2019 00:00:00 13,2 12,8 15 8 S 1009,4
18.05.2019 23:00:00 13,3 12,9 16 9 S 1009,7
18.05.2019 22:00:00 13,3 12,8 15 8 S 1009,9
18.05.2019 21:00:00 13,4 12,8 13 7 NW 1009,4
18.05.2019 20:00:00 13,6 12,8 21 11 E 1009,1
18.05.2019 19:00:00 14,5 13,5 24 13 S 1008,7
18.05.2019 18:00:00 14,9 13,9 21 11 S 1008,8
18.05.2019 17:00:00 14,6 13,3 28 15 SSW 1008,9
18.05.2019 16:00:00 15,0 13,5 28 15 S 1009,1
18.05.2019 15:00:00 15,6 13,4 28 15 N 1008,8
18.05.2019 14:00:00 16,8 14,2 28 15 NE 1009,0
18.05.2019 13:00:00 15,8 14,1 28 15 S 1009,4
18.05.2019 12:00:00 15,0 14,1 16 9 S 1009,6
18.05.2019 11:00:00 14,9 14,8 16 9 S 1009,6
18.05.2019 10:00:00 13,6 13,4 21 11 S 1010,3
18.05.2019 09:00:00 13,1 13,0 18 10 S 1010,9
18.05.2019 08:00:00 12,5 12,3 18 10 S 1010,5
18.05.2019 07:00:00 12,2 12,0 8 4 ESE 1009,8
18.05.2019 06:00:00 12,1 11,9 5 3 NNW 1009,9
18.05.2019 05:00:00 12,4 12,2 11 6 NW 1010,5
18.05.2019 04:00:00 12,3 12,0 9 5 S 1010,9
18.05.2019 03:00:00 12,1 11,8 8 4 E 1010,8
18.05.2019 02:00:00 11,8 11,3 4 2 S 1011,0
18.05.2019 01:00:00 12,0 11,4 5 3 NW 1011,5
18.05.2019 00:00:00 12,2 11,6 5 3 SW 1011,7
17.05.2019 23:00:00 12,1 11,2 5 3 SSE 1012,0
17.05.2019 22:00:00 11,8 10,4 2 1 S 1011,9
17.05.2019 21:00:00 12,5 10,2 5 3 SSE 1011,5
17.05.2019 20:00:00 14,6 11,0 4 2 S 1011,1
17.05.2019 19:00:00 17,5 11,7 9 5 SW 1010,4
17.05.2019 18:00:00 18,5 9,5 8 4 S 1010,2
17.05.2019 17:00:00 19,4 11,9 9 5 S 1010,1
17.05.2019 16:00:00 20,2 13,1 15 8 SSW 1010,1
17.05.2019 15:00:00 19,7 13,1 15 8 S 1010,2
17.05.2019 14:00:00 19,6 13,9 11 6 S 1010,6
17.05.2019 13:00:00 18,5 13,7 11 6 SSW 1011,2
17.05.2019 12:00:00 18,4 15,2 11 6 SW 1011,4
17.05.2019 11:00:00 15,7 14,2 8 4 SW 1011,9
17.05.2019 10:00:00 13,7 12,7 2 1 SW 1012,3
17.05.2019 09:00:00 14,0 13,8 5 3 NNE 1012,0
17.05.2019 08:00:00 12,3 12,1 21 11 NE 1011,9
17.05.2019 07:00:00 10,5 10,3 21 11 NE 1012,1
17.05.2019 06:00:00 9,7 9,4 18 10 NNE 1011,7
17.05.2019 05:00:00 10,1 9,8 16 9 NNE 1011,6
17.05.2019 04:00:00 10,1 9,8 16 9 NE 1011,8
17.05.2019 03:00:00 10,0 9,7 18 10 NNE 1011,9
17.05.2019 02:00:00 10,2 9,9 18 10 NNE 1012,1
17.05.2019 01:00:00 10,7 10,4 18 10 NNE 1012,5
17.05.2019 00:00:00 10,7 10,4 18 10 NNE 1012,7
16.05.2019 23:00:00 10,2 9,7 22 12 NNE 1012,8
16.05.2019 22:00:00 10,5 9,9 22 12 NNE 1012,4
16.05.2019 21:00:00 10,8 10,0 21 11 NNE 1011,8
16.05.2019 20:00:00 12,0 11,1 22 12 NE 1011,1
16.05.2019 19:00:00 12,6 11,5 21 11 NE 1010,9
16.05.2019 18:00:00 12,9 12,1 21 11 ENE 1010,7
16.05.2019 17:00:00 12,3 11,7 18 10 NE 1010,6
16.05.2019 16:00:00 12,5 12,0 16 9 ENE 1010,9
16.05.2019 15:00:00 12,1 11,6 15 8 ENE 1011,0
16.05.2019 14:00:00 12,4 11,9 13 7 ENE 1011,1
16.05.2019 13:00:00 11,8 11,0 9 5 E 1011,3
16.05.2019 12:00:00 13,4 11,9 22 12 ENE 1010,4
16.05.2019 11:00:00 13,4 12,9 9 5 ENE 1010,6
16.05.2019 10:00:00 13,5 13,3 16 9 ENE 1010,6
16.05.2019 09:00:00 11,6 11,4 22 12 NE 1010,5
16.05.2019 08:00:00 10,4 10,1 18 10 ENE 1011,1
16.05.2019 07:00:00 10,1 9,8 18 10 ENE 1010,8
16.05.2019 06:00:00 10,0 9,7 24 13 NE 1010,3
16.05.2019 05:00:00 9,7 9,4 24 13 ENE 1010,4
16.05.2019 04:00:00 9,9 9,6 22 12 ENE 1010,6
16.05.2019 03:00:00 10,1 9,8 21 11 ENE 1011,1
16.05.2019 02:00:00 9,8 9,3 18 10 ENE 1011,7
16.05.2019 01:00:00 9,7 9,2 18 10 ENE 1012,3
16.05.2019 00:00:00 9,6 9,0 15 8 ENE 1012,6
15.05.2019 23:00:00 10,0 9,4 13 7 ENE 1012,4
15.05.2019 22:00:00 10,3 9,7 15 8 ENE 1012,7
15.05.2019 21:00:00 10,3 9,5 18 10 ENE 1012,7
15.05.2019 20:00:00 10,5 9,7 15 8 ENE 1012,6
15.05.2019 19:00:00 11,2 10,4 15 8 E 1012,3
15.05.2019 18:00:00 11,0 9,9 21 11 ENE 1012,5
15.05.2019 17:00:00 13,3 11,8 8 4 ENE 1011,8
15.05.2019 16:00:00 12,5 11,7 21 11 NE 1012,1

tt = temperature
td = dewpoint
ff = wind speed
dd = wind direction
ppp = reduced air pressure

Next stations